sensor_id;sensor_type;location;lat;lon;timestamp;P1;durP1;ratioP1;P2;durP2;ratioP2
25057;SDS011;13057;50.978;11.034;2024-02-26T00:01:59;5.57;;;3.47;;
25057;SDS011;13057;50.978;11.034;2024-02-26T00:04:25;6.70;;;4.03;;
25057;SDS011;13057;50.978;11.034;2024-02-26T00:06:51;6.15;;;4.28;;
25057;SDS011;13057;50.978;11.034;2024-02-26T00:09:19;7.18;;;4.40;;
25057;SDS011;13057;50.978;11.034;2024-02-26T00:11:45;5.80;;;4.00;;
25057;SDS011;13057;50.978;11.034;2024-02-26T00:14:14;5.47;;;3.50;;
25057;SDS011;13057;50.978;11.034;2024-02-26T00:16:40;5.82;;;3.72;;
25057;SDS011;13057;50.978;11.034;2024-02-26T00:19:06;5.75;;;3.65;;
25057;SDS011;13057;50.978;11.034;2024-02-26T00:21:32;7.00;;;3.63;;
25057;SDS011;13057;50.978;11.034;2024-02-26T00:23:58;6.68;;;3.83;;
25057;SDS011;13057;50.978;11.034;2024-02-26T00:26:24;5.13;;;3.72;;
25057;SDS011;13057;50.978;11.034;2024-02-26T00:28:50;4.75;;;3.17;;
25057;SDS011;13057;50.978;11.034;2024-02-26T00:31:16;7.13;;;3.35;;
25057;SDS011;13057;50.978;11.034;2024-02-26T00:33:42;6.18;;;3.60;;
25057;SDS011;13057;50.978;11.034;2024-02-26T00:36:08;5.32;;;2.97;;
25057;SDS011;13057;50.978;11.034;2024-02-26T00:38:35;5.03;;;3.13;;
25057;SDS011;13057;50.978;11.034;2024-02-26T00:41:01;5.90;;;3.40;;
25057;SDS011;13057;50.978;11.034;2024-02-26T00:43:26;6.75;;;3.65;;
25057;SDS011;13057;50.978;11.034;2024-02-26T00:45:52;5.68;;;3.65;;
25057;SDS011;13057;50.978;11.034;2024-02-26T00:48:18;6.32;;;3.75;;
25057;SDS011;13057;50.978;11.034;2024-02-26T00:50:44;10.38;;;3.90;;
25057;SDS011;13057;50.978;11.034;2024-02-26T00:53:10;6.97;;;4.32;;
25057;SDS011;13057;50.978;11.034;2024-02-26T00:55:36;6.20;;;3.88;;
25057;SDS011;13057;50.978;11.034;2024-02-26T00:58:02;15.50;;;4.22;;
25057;SDS011;13057;50.978;11.034;2024-02-26T01:00:28;6.90;;;3.58;;
25057;SDS011;13057;50.978;11.034;2024-02-26T01:02:54;5.45;;;3.65;;
25057;SDS011;13057;50.978;11.034;2024-02-26T01:05:20;6.55;;;3.35;;
25057;SDS011;13057;50.978;11.034;2024-02-26T01:07:46;6.97;;;4.32;;
25057;SDS011;13057;50.978;11.034;2024-02-26T01:10:12;5.32;;;3.50;;
25057;SDS011;13057;50.978;11.034;2024-02-26T01:12:37;6.95;;;3.72;;
25057;SDS011;13057;50.978;11.034;2024-02-26T01:15:04;7.47;;;3.67;;
25057;SDS011;13057;50.978;11.034;2024-02-26T01:17:30;5.80;;;3.47;;
25057;SDS011;13057;50.978;11.034;2024-02-26T01:19:56;5.72;;;3.50;;
25057;SDS011;13057;50.978;11.034;2024-02-26T01:22:22;5.22;;;3.35;;
25057;SDS011;13057;50.978;11.034;2024-02-26T01:24:48;4.70;;;3.15;;
25057;SDS011;13057;50.978;11.034;2024-02-26T01:27:15;4.25;;;2.50;;
25057;SDS011;13057;50.978;11.034;2024-02-26T01:29:41;4.50;;;3.05;;
25057;SDS011;13057;50.978;11.034;2024-02-26T01:32:07;5.28;;;3.25;;
25057;SDS011;13057;50.978;11.034;2024-02-26T01:34:33;4.93;;;3.17;;
25057;SDS011;13057;50.978;11.034;2024-02-26T01:36:59;5.47;;;3.38;;
25057;SDS011;13057;50.978;11.034;2024-02-26T01:39:26;5.78;;;3.65;;
25057;SDS011;13057;50.978;11.034;2024-02-26T01:41:54;5.47;;;3.30;;
25057;SDS011;13057;50.978;11.034;2024-02-26T01:44:20;6.22;;;3.40;;
25057;SDS011;13057;50.978;11.034;2024-02-26T01:46:46;6.07;;;3.70;;
25057;SDS011;13057;50.978;11.034;2024-02-26T01:49:13;5.35;;;3.13;;
25057;SDS011;13057;50.978;11.034;2024-02-26T01:51:40;4.88;;;3.30;;
25057;SDS011;13057;50.978;11.034;2024-02-26T01:54:08;5.35;;;3.25;;
25057;SDS011;13057;50.978;11.034;2024-02-26T01:56:35;6.03;;;3.42;;
25057;SDS011;13057;50.978;11.034;2024-02-26T01:59:02;6.22;;;3.75;;
25057;SDS011;13057;50.978;11.034;2024-02-26T02:01:30;5.20;;;3.20;;
25057;SDS011;13057;50.978;11.034;2024-02-26T02:03:59;4.57;;;3.35;;
25057;SDS011;13057;50.978;11.034;2024-02-26T02:06:25;5.35;;;3.20;;
25057;SDS011;13057;50.978;11.034;2024-02-26T02:08:54;5.53;;;3.38;;
25057;SDS011;13057;50.978;11.034;2024-02-26T02:11:20;5.50;;;3.40;;
25057;SDS011;13057;50.978;11.034;2024-02-26T02:13:46;6.38;;;3.70;;
25057;SDS011;13057;50.978;11.034;2024-02-26T02:16:12;6.25;;;3.78;;
25057;SDS011;13057;50.978;11.034;2024-02-26T02:18:38;4.97;;;3.30;;
25057;SDS011;13057;50.978;11.034;2024-02-26T02:21:04;6.85;;;3.70;;
25057;SDS011;13057;50.978;11.034;2024-02-26T02:23:30;6.72;;;3.42;;
25057;SDS011;13057;50.978;11.034;2024-02-26T02:25:57;4.28;;;3.30;;
25057;SDS011;13057;50.978;11.034;2024-02-26T02:28:24;5.90;;;3.42;;
25057;SDS011;13057;50.978;11.034;2024-02-26T02:30:52;5.35;;;3.33;;
25057;SDS011;13057;50.978;11.034;2024-02-26T02:33:19;5.78;;;3.50;;
25057;SDS011;13057;50.978;11.034;2024-02-26T02:35:45;5.35;;;3.25;;
25057;SDS011;13057;50.978;11.034;2024-02-26T02:38:11;6.70;;;3.40;;
25057;SDS011;13057;50.978;11.034;2024-02-26T02:40:37;7.00;;;4.28;;
25057;SDS011;13057;50.978;11.034;2024-02-26T02:43:03;5.32;;;3.33;;
25057;SDS011;13057;50.978;11.034;2024-02-26T02:45:29;6.65;;;3.70;;
25057;SDS011;13057;50.978;11.034;2024-02-26T02:47:55;4.95;;;3.20;;
25057;SDS011;13057;50.978;11.034;2024-02-26T02:50:21;5.63;;;3.15;;
25057;SDS011;13057;50.978;11.034;2024-02-26T02:52:47;5.85;;;3.10;;
25057;SDS011;13057;50.978;11.034;2024-02-26T02:55:15;6.70;;;3.42;;
25057;SDS011;13057;50.978;11.034;2024-02-26T02:57:41;4.82;;;3.47;;
25057;SDS011;13057;50.978;11.034;2024-02-26T03:00:08;5.85;;;3.15;;
25057;SDS011;13057;50.978;11.034;2024-02-26T03:02:34;5.65;;;3.47;;
25057;SDS011;13057;50.978;11.034;2024-02-26T03:05:01;4.85;;;3.03;;
25057;SDS011;13057;50.978;11.034;2024-02-26T03:07:29;5.72;;;3.53;;
25057;SDS011;13057;50.978;11.034;2024-02-26T03:09:55;4.45;;;3.08;;
25057;SDS011;13057;50.978;11.034;2024-02-26T03:12:20;5.72;;;3.65;;
25057;SDS011;13057;50.978;11.034;2024-02-26T03:14:46;4.82;;;3.47;;
25057;SDS011;13057;50.978;11.034;2024-02-26T03:17:12;5.63;;;3.47;;
25057;SDS011;13057;50.978;11.034;2024-02-26T03:19:38;6.35;;;3.40;;
25057;SDS011;13057;50.978;11.034;2024-02-26T03:22:04;4.32;;;3.15;;
25057;SDS011;13057;50.978;11.034;2024-02-26T03:24:30;5.45;;;3.15;;
25057;SDS011;13057;50.978;11.034;2024-02-26T03:26:56;4.55;;;3.05;;
25057;SDS011;13057;50.978;11.034;2024-02-26T03:29:22;5.22;;;3.67;;
25057;SDS011;13057;50.978;11.034;2024-02-26T03:31:48;6.35;;;3.38;;
25057;SDS011;13057;50.978;11.034;2024-02-26T03:34:14;5.57;;;3.40;;
25057;SDS011;13057;50.978;11.034;2024-02-26T03:36:40;6.07;;;3.95;;
25057;SDS011;13057;50.978;11.034;2024-02-26T03:39:07;5.72;;;3.75;;
25057;SDS011;13057;50.978;11.034;2024-02-26T03:41:33;12.10;;;4.05;;
25057;SDS011;13057;50.978;11.034;2024-02-26T03:44:00;5.65;;;3.75;;
25057;SDS011;13057;50.978;11.034;2024-02-26T03:46:26;7.35;;;3.70;;
25057;SDS011;13057;50.978;11.034;2024-02-26T03:48:52;5.22;;;3.47;;
25057;SDS011;13057;50.978;11.034;2024-02-26T03:51:18;5.05;;;3.10;;
25057;SDS011;13057;50.978;11.034;2024-02-26T03:53:44;4.75;;;3.15;;
25057;SDS011;13057;50.978;11.034;2024-02-26T03:56:11;8.20;;;4.88;;
25057;SDS011;13057;50.978;11.034;2024-02-26T03:58:38;5.05;;;3.40;;
25057;SDS011;13057;50.978;11.034;2024-02-26T04:01:07;7.90;;;3.10;;
25057;SDS011;13057;50.978;11.034;2024-02-26T04:03:33;5.38;;;3.50;;
25057;SDS011;13057;50.978;11.034;2024-02-26T04:05:59;5.85;;;3.28;;
25057;SDS011;13057;50.978;11.034;2024-02-26T04:08:25;6.22;;;3.42;;
25057;SDS011;13057;50.978;11.034;2024-02-26T04:10:51;5.32;;;3.10;;
25057;SDS011;13057;50.978;11.034;2024-02-26T04:13:17;5.72;;;3.70;;
25057;SDS011;13057;50.978;11.034;2024-02-26T04:15:43;5.65;;;3.40;;
25057;SDS011;13057;50.978;11.034;2024-02-26T04:18:09;6.20;;;3.85;;
25057;SDS011;13057;50.978;11.034;2024-02-26T04:20:35;6.85;;;3.35;;
25057;SDS011;13057;50.978;11.034;2024-02-26T04:23:02;11.07;;;3.70;;
25057;SDS011;13057;50.978;11.034;2024-02-26T04:25:28;6.28;;;3.65;;
25057;SDS011;13057;50.978;11.034;2024-02-26T04:27:54;6.65;;;3.50;;
25057;SDS011;13057;50.978;11.034;2024-02-26T04:30:20;5.57;;;3.63;;
25057;SDS011;13057;50.978;11.034;2024-02-26T04:32:46;4.78;;;3.13;;
25057;SDS011;13057;50.978;11.034;2024-02-26T04:35:12;6.72;;;4.20;;
25057;SDS011;13057;50.978;11.034;2024-02-26T04:37:38;5.20;;;3.53;;
25057;SDS011;13057;50.978;11.034;2024-02-26T04:40:04;9.07;;;4.47;;
25057;SDS011;13057;50.978;11.034;2024-02-26T04:42:30;7.93;;;4.13;;
25057;SDS011;13057;50.978;11.034;2024-02-26T04:44:56;7.45;;;3.92;;
25057;SDS011;13057;50.978;11.034;2024-02-26T04:47:22;5.18;;;3.70;;
25057;SDS011;13057;50.978;11.034;2024-02-26T04:49:50;6.53;;;4.25;;
25057;SDS011;13057;50.978;11.034;2024-02-26T04:52:16;6.10;;;4.10;;
25057;SDS011;13057;50.978;11.034;2024-02-26T04:54:41;5.75;;;4.22;;
25057;SDS011;13057;50.978;11.034;2024-02-26T04:57:07;6.25;;;3.85;;
25057;SDS011;13057;50.978;11.034;2024-02-26T04:59:33;8.13;;;3.97;;
25057;SDS011;13057;50.978;11.034;2024-02-26T05:01:59;8.02;;;4.32;;
25057;SDS011;13057;50.978;11.034;2024-02-26T05:04:25;15.27;;;8.88;;
25057;SDS011;13057;50.978;11.034;2024-02-26T05:06:51;9.88;;;4.82;;
25057;SDS011;13057;50.978;11.034;2024-02-26T05:09:16;8.27;;;5.18;;
25057;SDS011;13057;50.978;11.034;2024-02-26T05:11:43;11.25;;;5.78;;
25057;SDS011;13057;50.978;11.034;2024-02-26T05:14:09;10.80;;;5.15;;
25057;SDS011;13057;50.978;11.034;2024-02-26T05:16:35;8.63;;;5.07;;
25057;SDS011;13057;50.978;11.034;2024-02-26T05:19:01;10.07;;;5.53;;
25057;SDS011;13057;50.978;11.034;2024-02-26T05:21:28;12.27;;;5.55;;
25057;SDS011;13057;50.978;11.034;2024-02-26T05:23:54;14.20;;;5.00;;
25057;SDS011;13057;50.978;11.034;2024-02-26T05:26:20;9.05;;;4.95;;
25057;SDS011;13057;50.978;11.034;2024-02-26T05:28:47;8.55;;;5.18;;
25057;SDS011;13057;50.978;11.034;2024-02-26T05:31:13;6.60;;;4.47;;
25057;SDS011;13057;50.978;11.034;2024-02-26T05:33:39;6.53;;;4.43;;
25057;SDS011;13057;50.978;11.034;2024-02-26T05:36:05;7.18;;;4.38;;
25057;SDS011;13057;50.978;11.034;2024-02-26T05:38:31;7.57;;;4.68;;
25057;SDS011;13057;50.978;11.034;2024-02-26T05:40:58;10.93;;;5.28;;
25057;SDS011;13057;50.978;11.034;2024-02-26T05:43:25;7.13;;;4.65;;
25057;SDS011;13057;50.978;11.034;2024-02-26T05:45:52;6.55;;;4.60;;
25057;SDS011;13057;50.978;11.034;2024-02-26T05:48:18;8.60;;;5.15;;
25057;SDS011;13057;50.978;11.034;2024-02-26T05:50:45;9.38;;;4.85;;
25057;SDS011;13057;50.978;11.034;2024-02-26T05:53:11;9.40;;;4.90;;
25057;SDS011;13057;50.978;11.034;2024-02-26T05:55:37;8.80;;;5.28;;
25057;SDS011;13057;50.978;11.034;2024-02-26T05:58:03;9.75;;;5.22;;
25057;SDS011;13057;50.978;11.034;2024-02-26T06:00:30;8.18;;;5.18;;
25057;SDS011;13057;50.978;11.034;2024-02-26T06:02:56;13.63;;;6.22;;
25057;SDS011;13057;50.978;11.034;2024-02-26T06:05:22;11.20;;;6.00;;
25057;SDS011;13057;50.978;11.034;2024-02-26T06:07:48;9.48;;;5.90;;
25057;SDS011;13057;50.978;11.034;2024-02-26T06:10:13;11.60;;;5.93;;
25057;SDS011;13057;50.978;11.034;2024-02-26T06:12:40;8.07;;;5.05;;
25057;SDS011;13057;50.978;11.034;2024-02-26T06:15:06;11.70;;;5.85;;
25057;SDS011;13057;50.978;11.034;2024-02-26T06:17:32;60.97;;;10.55;;
25057;SDS011;13057;50.978;11.034;2024-02-26T06:19:59;15.32;;;6.35;;
25057;SDS011;13057;50.978;11.034;2024-02-26T06:22:25;8.98;;;5.50;;
25057;SDS011;13057;50.978;11.034;2024-02-26T06:24:51;10.05;;;5.82;;
25057;SDS011;13057;50.978;11.034;2024-02-26T06:27:17;9.65;;;5.60;;
25057;SDS011;13057;50.978;11.034;2024-02-26T06:32:40;8.90;;;5.45;;
25057;SDS011;13057;50.978;11.034;2024-02-26T06:35:06;8.93;;;5.55;;
25057;SDS011;13057;50.978;11.034;2024-02-26T06:37:35;14.23;;;6.97;;
25057;SDS011;13057;50.978;11.034;2024-02-26T06:40:01;6.55;;;4.78;;
25057;SDS011;13057;50.978;11.034;2024-02-26T06:42:29;24.10;;;6.43;;
25057;SDS011;13057;50.978;11.034;2024-02-26T06:44:55;7.85;;;4.72;;
25057;SDS011;13057;50.978;11.034;2024-02-26T06:47:22;11.75;;;4.97;;
25057;SDS011;13057;50.978;11.034;2024-02-26T06:49:48;8.43;;;6.05;;
25057;SDS011;13057;50.978;11.034;2024-02-26T06:52:15;9.23;;;4.82;;
25057;SDS011;13057;50.978;11.034;2024-02-26T06:54:40;9.75;;;5.18;;
25057;SDS011;13057;50.978;11.034;2024-02-26T06:57:07;9.93;;;5.63;;
25057;SDS011;13057;50.978;11.034;2024-02-26T06:59:32;10.30;;;5.85;;
25057;SDS011;13057;50.978;11.034;2024-02-26T07:01:58;17.05;;;6.50;;
25057;SDS011;13057;50.978;11.034;2024-02-26T07:04:24;11.77;;;6.53;;
25057;SDS011;13057;50.978;11.034;2024-02-26T07:06:50;11.13;;;7.15;;
25057;SDS011;13057;50.978;11.034;2024-02-26T07:09:16;15.05;;;7.38;;
25057;SDS011;13057;50.978;11.034;2024-02-26T07:11:42;8.50;;;5.63;;
25057;SDS011;13057;50.978;11.034;2024-02-26T07:14:10;21.98;;;6.93;;
25057;SDS011;13057;50.978;11.034;2024-02-26T07:16:37;13.82;;;7.18;;
25057;SDS011;13057;50.978;11.034;2024-02-26T07:19:03;11.10;;;6.40;;
25057;SDS011;13057;50.978;11.034;2024-02-26T07:21:29;14.32;;;6.88;;
25057;SDS011;13057;50.978;11.034;2024-02-26T07:23:55;14.30;;;7.20;;
25057;SDS011;13057;50.978;11.034;2024-02-26T07:26:21;15.50;;;6.88;;
25057;SDS011;13057;50.978;11.034;2024-02-26T07:28:49;19.23;;;8.20;;
25057;SDS011;13057;50.978;11.034;2024-02-26T07:31:15;17.08;;;8.48;;
25057;SDS011;13057;50.978;11.034;2024-02-26T07:33:42;15.02;;;8.32;;
25057;SDS011;13057;50.978;11.034;2024-02-26T07:36:08;12.73;;;8.23;;
25057;SDS011;13057;50.978;11.034;2024-02-26T07:38:34;12.75;;;8.45;;
25057;SDS011;13057;50.978;11.034;2024-02-26T07:41:01;16.60;;;8.60;;
25057;SDS011;13057;50.978;11.034;2024-02-26T07:43:28;14.60;;;9.05;;
25057;SDS011;13057;50.978;11.034;2024-02-26T07:45:54;14.32;;;9.15;;
25057;SDS011;13057;50.978;11.034;2024-02-26T07:48:20;19.33;;;9.75;;
25057;SDS011;13057;50.978;11.034;2024-02-26T07:50:47;16.90;;;10.63;;
25057;SDS011;13057;50.978;11.034;2024-02-26T07:53:13;20.50;;;11.27;;
25057;SDS011;13057;50.978;11.034;2024-02-26T07:55:38;21.02;;;11.75;;
25057;SDS011;13057;50.978;11.034;2024-02-26T07:58:04;19.33;;;11.30;;
25057;SDS011;13057;50.978;11.034;2024-02-26T08:00:30;17.92;;;11.43;;
25057;SDS011;13057;50.978;11.034;2024-02-26T08:02:56;20.67;;;10.88;;
25057;SDS011;13057;50.978;11.034;2024-02-26T08:05:22;18.63;;;10.93;;
25057;SDS011;13057;50.978;11.034;2024-02-26T08:07:50;21.73;;;11.25;;
25057;SDS011;13057;50.978;11.034;2024-02-26T08:10:16;15.45;;;9.60;;
25057;SDS011;13057;50.978;11.034;2024-02-26T08:12:42;20.65;;;12.40;;
25057;SDS011;13057;50.978;11.034;2024-02-26T08:15:10;25.77;;;12.35;;
25057;SDS011;13057;50.978;11.034;2024-02-26T08:17:36;22.13;;;11.80;;
25057;SDS011;13057;50.978;11.034;2024-02-26T08:20:03;20.40;;;12.07;;
25057;SDS011;13057;50.978;11.034;2024-02-26T08:22:29;18.35;;;11.30;;
25057;SDS011;13057;50.978;11.034;2024-02-26T08:24:56;20.58;;;13.15;;
25057;SDS011;13057;50.978;11.034;2024-02-26T08:27:25;24.55;;;12.27;;
25057;SDS011;13057;50.978;11.034;2024-02-26T08:29:51;23.60;;;13.38;;
25057;SDS011;13057;50.978;11.034;2024-02-26T08:32:20;20.33;;;13.23;;
25057;SDS011;13057;50.978;11.034;2024-02-26T08:34:47;24.83;;;13.20;;
25057;SDS011;13057;50.978;11.034;2024-02-26T08:37:12;21.52;;;13.32;;
25057;SDS011;13057;50.978;11.034;2024-02-26T08:39:38;19.77;;;13.07;;
25057;SDS011;13057;50.978;11.034;2024-02-26T08:42:04;22.70;;;12.90;;
25057;SDS011;13057;50.978;11.034;2024-02-26T08:44:30;24.23;;;14.75;;
25057;SDS011;13057;50.978;11.034;2024-02-26T08:46:56;22.98;;;14.23;;
25057;SDS011;13057;50.978;11.034;2024-02-26T08:49:23;25.30;;;14.63;;
25057;SDS011;13057;50.978;11.034;2024-02-26T08:57:18;23.73;;;14.98;;
25057;SDS011;13057;50.978;11.034;2024-02-26T08:59:44;23.70;;;15.65;;
25057;SDS011;13057;50.978;11.034;2024-02-26T09:02:10;24.02;;;15.85;;
25057;SDS011;13057;50.978;11.034;2024-02-26T09:04:36;25.60;;;15.40;;
25057;SDS011;13057;50.978;11.034;2024-02-26T09:07:02;27.33;;;16.50;;
25057;SDS011;13057;50.978;11.034;2024-02-26T09:09:28;25.80;;;16.85;;
25057;SDS011;13057;50.978;11.034;2024-02-26T09:11:54;25.77;;;16.35;;
25057;SDS011;13057;50.978;11.034;2024-02-26T09:14:20;23.52;;;16.13;;
25057;SDS011;13057;50.978;11.034;2024-02-26T09:16:46;29.48;;;16.63;;
25057;SDS011;13057;50.978;11.034;2024-02-26T09:19:14;26.08;;;16.73;;
25057;SDS011;13057;50.978;11.034;2024-02-26T09:21:42;31.00;;;17.20;;
25057;SDS011;13057;50.978;11.034;2024-02-26T09:24:09;27.95;;;17.27;;
25057;SDS011;13057;50.978;11.034;2024-02-26T09:26:36;28.35;;;17.33;;
25057;SDS011;13057;50.978;11.034;2024-02-26T09:29:02;27.33;;;16.48;;
25057;SDS011;13057;50.978;11.034;2024-02-26T09:31:29;23.80;;;16.50;;
25057;SDS011;13057;50.978;11.034;2024-02-26T09:33:55;28.60;;;17.08;;
25057;SDS011;13057;50.978;11.034;2024-02-26T09:36:21;25.80;;;16.33;;
25057;SDS011;13057;50.978;11.034;2024-02-26T09:38:47;27.63;;;17.08;;
25057;SDS011;13057;50.978;11.034;2024-02-26T09:41:14;25.10;;;16.38;;
25057;SDS011;13057;50.978;11.034;2024-02-26T09:43:43;27.27;;;16.88;;
25057;SDS011;13057;50.978;11.034;2024-02-26T09:46:11;25.77;;;15.98;;
25057;SDS011;13057;50.978;11.034;2024-02-26T09:48:38;26.95;;;15.95;;
25057;SDS011;13057;50.978;11.034;2024-02-26T09:51:04;24.48;;;15.68;;
25057;SDS011;13057;50.978;11.034;2024-02-26T09:53:30;26.52;;;16.40;;
25057;SDS011;13057;50.978;11.034;2024-02-26T09:55:58;26.15;;;15.70;;
25057;SDS011;13057;50.978;11.034;2024-02-26T09:58:24;26.35;;;16.58;;
25057;SDS011;13057;50.978;11.034;2024-02-26T10:00:55;27.95;;;15.40;;
25057;SDS011;13057;50.978;11.034;2024-02-26T10:03:25;27.85;;;16.38;;
25057;SDS011;13057;50.978;11.034;2024-02-26T10:08:22;27.30;;;16.52;;
25057;SDS011;13057;50.978;11.034;2024-02-26T10:10:50;24.30;;;16.08;;
25057;SDS011;13057;50.978;11.034;2024-02-26T10:13:17;27.02;;;16.08;;
25057;SDS011;13057;50.978;11.034;2024-02-26T10:15:46;29.20;;;16.38;;
25057;SDS011;13057;50.978;11.034;2024-02-26T10:18:13;25.45;;;16.17;;
25057;SDS011;13057;50.978;11.034;2024-02-26T10:20:39;25.10;;;15.15;;
25057;SDS011;13057;50.978;11.034;2024-02-26T10:23:05;23.55;;;15.70;;
25057;SDS011;13057;50.978;11.034;2024-02-26T10:25:31;23.58;;;15.88;;
25057;SDS011;13057;50.978;11.034;2024-02-26T10:27:59;23.05;;;15.50;;
25057;SDS011;13057;50.978;11.034;2024-02-26T10:30:27;24.95;;;15.98;;
25057;SDS011;13057;50.978;11.034;2024-02-26T10:32:53;24.35;;;15.60;;
25057;SDS011;13057;50.978;11.034;2024-02-26T10:35:20;27.08;;;16.00;;
25057;SDS011;13057;50.978;11.034;2024-02-26T10:37:47;23.17;;;15.00;;
25057;SDS011;13057;50.978;11.034;2024-02-26T10:40:14;23.75;;;15.50;;
25057;SDS011;13057;50.978;11.034;2024-02-26T10:42:40;24.35;;;15.18;;
25057;SDS011;13057;50.978;11.034;2024-02-26T10:45:08;22.30;;;15.07;;
25057;SDS011;13057;50.978;11.034;2024-02-26T10:47:35;23.40;;;15.50;;
25057;SDS011;13057;50.978;11.034;2024-02-26T10:50:02;26.15;;;16.02;;
25057;SDS011;13057;50.978;11.034;2024-02-26T10:52:31;23.45;;;15.50;;
25057;SDS011;13057;50.978;11.034;2024-02-26T10:55:00;25.00;;;15.57;;
25057;SDS011;13057;50.978;11.034;2024-02-26T10:57:31;23.05;;;14.00;;
25057;SDS011;13057;50.978;11.034;2024-02-26T11:00:01;28.48;;;15.35;;
25057;SDS011;13057;50.978;11.034;2024-02-26T11:02:31;25.38;;;15.60;;
25057;SDS011;13057;50.978;11.034;2024-02-26T11:05:00;22.50;;;14.82;;
25057;SDS011;13057;50.978;11.034;2024-02-26T11:07:32;28.80;;;15.38;;
25057;SDS011;13057;50.978;11.034;2024-02-26T11:10:02;23.35;;;14.98;;
25057;SDS011;13057;50.978;11.034;2024-02-26T11:12:29;22.67;;;14.77;;
25057;SDS011;13057;50.978;11.034;2024-02-26T11:14:57;23.00;;;14.43;;
25057;SDS011;13057;50.978;11.034;2024-02-26T11:17:26;23.42;;;14.15;;
25057;SDS011;13057;50.978;11.034;2024-02-26T11:19:56;24.25;;;13.88;;
25057;SDS011;13057;50.978;11.034;2024-02-26T11:22:25;21.38;;;14.10;;
25057;SDS011;13057;50.978;11.034;2024-02-26T11:24:53;25.38;;;15.77;;
25057;SDS011;13057;50.978;11.034;2024-02-26T11:27:21;23.13;;;14.82;;
25057;SDS011;13057;50.978;11.034;2024-02-26T11:29:53;25.27;;;14.52;;
25057;SDS011;13057;50.978;11.034;2024-02-26T11:32:21;22.73;;;14.55;;
25057;SDS011;13057;50.978;11.034;2024-02-26T11:34:48;26.52;;;15.70;;
25057;SDS011;13057;50.978;11.034;2024-02-26T11:37:16;21.17;;;13.80;;
25057;SDS011;13057;50.978;11.034;2024-02-26T11:39:42;22.65;;;14.57;;
25057;SDS011;13057;50.978;11.034;2024-02-26T11:42:15;22.73;;;14.75;;
25057;SDS011;13057;50.978;11.034;2024-02-26T11:44:44;22.58;;;14.27;;
25057;SDS011;13057;50.978;11.034;2024-02-26T11:47:12;22.95;;;14.32;;
25057;SDS011;13057;50.978;11.034;2024-02-26T11:49:45;21.25;;;12.88;;
25057;SDS011;13057;50.978;11.034;2024-02-26T11:52:13;21.55;;;13.48;;
25057;SDS011;13057;50.978;11.034;2024-02-26T11:54:43;21.00;;;14.27;;
25057;SDS011;13057;50.978;11.034;2024-02-26T11:57:21;26.08;;;14.27;;
25057;SDS011;13057;50.978;11.034;2024-02-26T11:59:49;23.83;;;15.07;;
25057;SDS011;13057;50.978;11.034;2024-02-26T12:05:09;23.20;;;13.68;;
25057;SDS011;13057;50.978;11.034;2024-02-26T12:07:43;23.00;;;13.82;;
25057;SDS011;13057;50.978;11.034;2024-02-26T12:10:14;23.35;;;14.50;;
25057;SDS011;13057;50.978;11.034;2024-02-26T12:12:54;21.50;;;13.57;;
25057;SDS011;13057;50.978;11.034;2024-02-26T12:15:30;21.98;;;14.23;;
25057;SDS011;13057;50.978;11.034;2024-02-26T12:18:00;21.50;;;13.68;;
25057;SDS011;13057;50.978;11.034;2024-02-26T12:20:28;20.30;;;13.95;;
25057;SDS011;13057;50.978;11.034;2024-02-26T12:22:55;23.05;;;13.85;;
25057;SDS011;13057;50.978;11.034;2024-02-26T12:25:26;25.63;;;14.30;;
25057;SDS011;13057;50.978;11.034;2024-02-26T12:27:54;21.02;;;13.82;;
25057;SDS011;13057;50.978;11.034;2024-02-26T12:30:21;27.20;;;17.67;;
25057;SDS011;13057;50.978;11.034;2024-02-26T12:32:49;18.52;;;12.30;;
25057;SDS011;13057;50.978;11.034;2024-02-26T12:35:17;19.42;;;13.10;;
25057;SDS011;13057;50.978;11.034;2024-02-26T12:37:44;21.88;;;13.77;;
25057;SDS011;13057;50.978;11.034;2024-02-26T12:40:12;53.90;;;31.00;;
25057;SDS011;13057;50.978;11.034;2024-02-26T12:42:39;19.20;;;13.05;;
25057;SDS011;13057;50.978;11.034;2024-02-26T12:45:09;23.63;;;13.27;;
25057;SDS011;13057;50.978;11.034;2024-02-26T12:47:42;22.13;;;13.07;;
25057;SDS011;13057;50.978;11.034;2024-02-26T12:50:27;20.35;;;13.93;;
25057;SDS011;13057;50.978;11.034;2024-02-26T12:53:00;20.98;;;13.38;;
25057;SDS011;13057;50.978;11.034;2024-02-26T12:55:27;21.45;;;12.60;;
25057;SDS011;13057;50.978;11.034;2024-02-26T12:57:53;21.40;;;14.15;;
25057;SDS011;13057;50.978;11.034;2024-02-26T13:00:22;21.20;;;13.30;;
25057;SDS011;13057;50.978;11.034;2024-02-26T13:02:52;20.77;;;13.57;;
25057;SDS011;13057;50.978;11.034;2024-02-26T13:05:20;23.33;;;14.75;;
25057;SDS011;13057;50.978;11.034;2024-02-26T13:07:47;24.40;;;13.85;;
25057;SDS011;13057;50.978;11.034;2024-02-26T13:10:14;24.35;;;15.07;;
25057;SDS011;13057;50.978;11.034;2024-02-26T13:12:43;21.73;;;13.35;;
25057;SDS011;13057;50.978;11.034;2024-02-26T13:15:13;19.92;;;13.23;;
25057;SDS011;13057;50.978;11.034;2024-02-26T13:17:42;21.67;;;13.52;;
25057;SDS011;13057;50.978;11.034;2024-02-26T13:20:08;22.85;;;12.45;;
25057;SDS011;13057;50.978;11.034;2024-02-26T13:22:38;22.80;;;14.40;;
25057;SDS011;13057;50.978;11.034;2024-02-26T13:25:04;19.52;;;13.18;;
25057;SDS011;13057;50.978;11.034;2024-02-26T13:27:33;20.13;;;13.32;;
25057;SDS011;13057;50.978;11.034;2024-02-26T13:30:06;22.20;;;12.00;;
25057;SDS011;13057;50.978;11.034;2024-02-26T13:32:36;20.35;;;13.18;;
25057;SDS011;13057;50.978;11.034;2024-02-26T13:35:04;22.92;;;13.93;;
25057;SDS011;13057;50.978;11.034;2024-02-26T13:37:34;19.33;;;12.85;;
25057;SDS011;13057;50.978;11.034;2024-02-26T13:40:05;23.08;;;13.77;;
25057;SDS011;13057;50.978;11.034;2024-02-26T13:42:36;18.75;;;12.48;;
25057;SDS011;13057;50.978;11.034;2024-02-26T13:45:02;19.92;;;13.20;;
25057;SDS011;13057;50.978;11.034;2024-02-26T13:47:32;20.88;;;13.00;;
25057;SDS011;13057;50.978;11.034;2024-02-26T13:49:59;19.17;;;12.32;;
25057;SDS011;13057;50.978;11.034;2024-02-26T13:52:25;21.05;;;13.05;;
25057;SDS011;13057;50.978;11.034;2024-02-26T13:54:51;21.27;;;12.73;;
25057;SDS011;13057;50.978;11.034;2024-02-26T13:57:19;18.95;;;12.50;;
25057;SDS011;13057;50.978;11.034;2024-02-26T13:59:45;21.35;;;12.48;;
25057;SDS011;13057;50.978;11.034;2024-02-26T14:02:11;18.30;;;12.30;;
25057;SDS011;13057;50.978;11.034;2024-02-26T14:04:38;21.23;;;12.25;;
25057;SDS011;13057;50.978;11.034;2024-02-26T14:07:04;18.85;;;11.60;;
25057;SDS011;13057;50.978;11.034;2024-02-26T14:09:31;20.23;;;11.93;;
25057;SDS011;13057;50.978;11.034;2024-02-26T14:11:58;18.40;;;12.48;;
25057;SDS011;13057;50.978;11.034;2024-02-26T14:14:27;19.98;;;12.52;;
25057;SDS011;13057;50.978;11.034;2024-02-26T14:16:53;17.50;;;11.60;;
25057;SDS011;13057;50.978;11.034;2024-02-26T14:19:18;18.67;;;12.02;;
25057;SDS011;13057;50.978;11.034;2024-02-26T14:21:44;20.98;;;11.95;;
25057;SDS011;13057;50.978;11.034;2024-02-26T14:24:10;16.40;;;11.30;;
25057;SDS011;13057;50.978;11.034;2024-02-26T14:26:36;18.30;;;11.07;;
25057;SDS011;13057;50.978;11.034;2024-02-26T14:29:02;16.10;;;11.00;;
25057;SDS011;13057;50.978;11.034;2024-02-26T14:31:28;18.02;;;10.77;;
25057;SDS011;13057;50.978;11.034;2024-02-26T14:33:54;16.45;;;10.70;;